sensor_id;sensor_type;location;lat;lon;timestamp;pressure;altitude;pressure_sealevel;temperature;humidity
57290;BME280;43523;53.022;-1.178;2024-02-26T00:00:58;99635.67;;;0.08;100.00
57290;BME280;43523;53.022;-1.178;2024-02-26T00:02:01;99634.64;;;0.52;100.00
57290;BME280;43523;53.022;-1.178;2024-02-26T00:03:05;99639.15;;;-0.17;100.00
57290;BME280;43523;53.022;-1.178;2024-02-26T00:04:12;99640.42;;;-0.10;100.00
57290;BME280;43523;53.022;-1.178;2024-02-26T00:05:15;99635.93;;;0.13;100.00
57290;BME280;43523;53.022;-1.178;2024-02-26T00:06:17;99643.59;;;0.14;100.00
57290;BME280;43523;53.022;-1.178;2024-02-26T00:07:20;99644.18;;;0.01;100.00
57290;BME280;43523;53.022;-1.178;2024-02-26T00:08:22;99647.93;;;-0.09;100.00
57290;BME280;43523;53.022;-1.178;2024-02-26T00:09:25;99647.56;;;0.19;100.00
57290;BME280;43523;53.022;-1.178;2024-02-26T00:10:28;99647.40;;;0.10;100.00
57290;BME280;43523;53.022;-1.178;2024-02-26T00:11:31;99649.60;;;-0.05;100.00
57290;BME280;43523;53.022;-1.178;2024-02-26T00:12:33;99649.20;;;0.24;100.00
57290;BME280;43523;53.022;-1.178;2024-02-26T00:13:36;99653.20;;;0.15;100.00
57290;BME280;43523;53.022;-1.178;2024-02-26T00:14:38;99654.24;;;-0.28;100.00
57290;BME280;43523;53.022;-1.178;2024-02-26T00:15:41;99653.64;;;0.19;100.00
57290;BME280;43523;53.022;-1.178;2024-02-26T00:16:43;99657.30;;;0.09;100.00
57290;BME280;43523;53.022;-1.178;2024-02-26T00:17:46;99660.73;;;0.24;100.00
57290;BME280;43523;53.022;-1.178;2024-02-26T00:18:48;99661.57;;;-0.08;100.00
57290;BME280;43523;53.022;-1.178;2024-02-26T00:19:51;99664.55;;;0.17;100.00
57290;BME280;43523;53.022;-1.178;2024-02-26T00:20:53;99667.33;;;0.60;100.00
57290;BME280;43523;53.022;-1.178;2024-02-26T00:21:55;99667.34;;;0.44;100.00
57290;BME280;43523;53.022;-1.178;2024-02-26T00:22:58;99669.46;;;0.17;100.00
57290;BME280;43523;53.022;-1.178;2024-02-26T00:24:00;99670.28;;;0.10;100.00
57290;BME280;43523;53.022;-1.178;2024-02-26T00:25:05;99675.23;;;-0.05;100.00
57290;BME280;43523;53.022;-1.178;2024-02-26T00:26:07;99674.63;;;-0.21;100.00
57290;BME280;43523;53.022;-1.178;2024-02-26T00:27:10;99681.06;;;-0.14;100.00
57290;BME280;43523;53.022;-1.178;2024-02-26T00:28:13;99673.79;;;0.10;100.00
57290;BME280;43523;53.022;-1.178;2024-02-26T00:29:16;99681.39;;;0.11;100.00
57290;BME280;43523;53.022;-1.178;2024-02-26T00:30:18;99681.25;;;-0.17;100.00
57290;BME280;43523;53.022;-1.178;2024-02-26T00:31:21;99681.88;;;0.16;100.00
57290;BME280;43523;53.022;-1.178;2024-02-26T00:32:25;99685.33;;;-0.30;100.00
57290;BME280;43523;53.022;-1.178;2024-02-26T00:33:27;99686.75;;;-0.14;100.00
57290;BME280;43523;53.022;-1.178;2024-02-26T00:34:31;99688.82;;;-0.24;100.00
57290;BME280;43523;53.022;-1.178;2024-02-26T00:35:34;99688.90;;;-0.38;100.00
57290;BME280;43523;53.022;-1.178;2024-02-26T00:36:37;99689.08;;;-0.42;100.00
57290;BME280;43523;53.022;-1.178;2024-02-26T00:37:39;99691.67;;;-0.29;100.00
57290;BME280;43523;53.022;-1.178;2024-02-26T00:38:42;99694.89;;;0.61;100.00
57290;BME280;43523;53.022;-1.178;2024-02-26T00:39:47;99691.06;;;-0.14;100.00
57290;BME280;43523;53.022;-1.178;2024-02-26T00:40:49;99693.72;;;-0.17;100.00
57290;BME280;43523;53.022;-1.178;2024-02-26T00:41:52;99694.91;;;-0.30;100.00
57290;BME280;43523;53.022;-1.178;2024-02-26T00:42:54;99698.29;;;-0.09;100.00
57290;BME280;43523;53.022;-1.178;2024-02-26T00:43:58;99698.54;;;-0.03;100.00
57290;BME280;43523;53.022;-1.178;2024-02-26T00:45:00;99702.35;;;-0.10;100.00
57290;BME280;43523;53.022;-1.178;2024-02-26T00:46:04;99706.98;;;-0.06;100.00
57290;BME280;43523;53.022;-1.178;2024-02-26T00:47:07;99703.84;;;-0.29;100.00
57290;BME280;43523;53.022;-1.178;2024-02-26T00:48:09;99704.35;;;-0.23;100.00
57290;BME280;43523;53.022;-1.178;2024-02-26T00:49:12;99711.89;;;0.05;100.00
57290;BME280;43523;53.022;-1.178;2024-02-26T00:50:15;99709.83;;;-0.01;100.00
57290;BME280;43523;53.022;-1.178;2024-02-26T00:51:18;99709.71;;;-0.10;100.00
57290;BME280;43523;53.022;-1.178;2024-02-26T00:52:19;99719.32;;;-0.30;100.00
57290;BME280;43523;53.022;-1.178;2024-02-26T00:53:22;99719.73;;;0.11;100.00
57290;BME280;43523;53.022;-1.178;2024-02-26T00:54:24;99718.71;;;-0.22;100.00
57290;BME280;43523;53.022;-1.178;2024-02-26T00:55:27;99721.74;;;-0.08;100.00
57290;BME280;43523;53.022;-1.178;2024-02-26T00:56:30;99726.01;;;-0.28;100.00
57290;BME280;43523;53.022;-1.178;2024-02-26T00:57:32;99721.70;;;-0.32;100.00
57290;BME280;43523;53.022;-1.178;2024-02-26T00:58:34;99728.68;;;-0.01;100.00
57290;BME280;43523;53.022;-1.178;2024-02-26T00:59:36;99728.01;;;-0.06;100.00
57290;BME280;43523;53.022;-1.178;2024-02-26T01:00:39;99727.67;;;-0.33;100.00
57290;BME280;43523;53.022;-1.178;2024-02-26T01:01:42;99729.23;;;-0.14;100.00
57290;BME280;43523;53.022;-1.178;2024-02-26T01:02:44;99727.09;;;-0.11;100.00
57290;BME280;43523;53.022;-1.178;2024-02-26T01:03:47;99727.97;;;-0.12;100.00
57290;BME280;43523;53.022;-1.178;2024-02-26T01:04:50;99734.37;;;-0.36;100.00
57290;BME280;43523;53.022;-1.178;2024-02-26T01:05:57;99737.93;;;-0.20;100.00
57290;BME280;43523;53.022;-1.178;2024-02-26T01:06:59;99738.71;;;-0.12;100.00
57290;BME280;43523;53.022;-1.178;2024-02-26T01:08:02;99737.89;;;-0.02;100.00
57290;BME280;43523;53.022;-1.178;2024-02-26T01:09:05;99738.90;;;0.01;100.00
57290;BME280;43523;53.022;-1.178;2024-02-26T01:10:08;99745.14;;;-0.36;100.00
57290;BME280;43523;53.022;-1.178;2024-02-26T01:11:16;99743.85;;;0.03;100.00
57290;BME280;43523;53.022;-1.178;2024-02-26T01:12:18;99750.55;;;0.07;100.00
57290;BME280;43523;53.022;-1.178;2024-02-26T01:13:20;99752.54;;;-0.12;100.00
57290;BME280;43523;53.022;-1.178;2024-02-26T01:14:28;99753.94;;;0.08;100.00
57290;BME280;43523;53.022;-1.178;2024-02-26T01:15:30;99756.16;;;-0.05;100.00
57290;BME280;43523;53.022;-1.178;2024-02-26T01:16:33;99757.18;;;0.22;100.00
57290;BME280;43523;53.022;-1.178;2024-02-26T01:17:35;99755.81;;;0.21;100.00
57290;BME280;43523;53.022;-1.178;2024-02-26T01:18:38;99760.37;;;0.18;100.00
57290;BME280;43523;53.022;-1.178;2024-02-26T01:19:42;99762.17;;;0.02;100.00
57290;BME280;43523;53.022;-1.178;2024-02-26T01:20:44;99767.15;;;0.12;100.00
57290;BME280;43523;53.022;-1.178;2024-02-26T01:21:47;99766.91;;;0.12;100.00
57290;BME280;43523;53.022;-1.178;2024-02-26T01:22:49;99768.69;;;0.03;100.00
57290;BME280;43523;53.022;-1.178;2024-02-26T01:23:52;99768.63;;;0.01;100.00
57290;BME280;43523;53.022;-1.178;2024-02-26T01:24:54;99769.14;;;-0.05;100.00
57290;BME280;43523;53.022;-1.178;2024-02-26T01:25:58;99773.40;;;-0.46;100.00
57290;BME280;43523;53.022;-1.178;2024-02-26T01:27:00;99774.55;;;-0.02;100.00
57290;BME280;43523;53.022;-1.178;2024-02-26T01:28:05;99774.49;;;-0.18;100.00
57290;BME280;43523;53.022;-1.178;2024-02-26T01:29:08;99777.15;;;-0.15;100.00
57290;BME280;43523;53.022;-1.178;2024-02-26T01:30:11;99781.90;;;-0.06;100.00
57290;BME280;43523;53.022;-1.178;2024-02-26T01:31:13;99783.07;;;-0.26;100.00
57290;BME280;43523;53.022;-1.178;2024-02-26T01:32:15;99789.02;;;-0.12;100.00
57290;BME280;43523;53.022;-1.178;2024-02-26T01:33:17;99792.74;;;-0.21;100.00
57290;BME280;43523;53.022;-1.178;2024-02-26T01:34:20;99795.32;;;-0.02;100.00
57290;BME280;43523;53.022;-1.178;2024-02-26T01:35:22;99792.61;;;-0.08;100.00
57290;BME280;43523;53.022;-1.178;2024-02-26T01:36:24;99792.80;;;-0.04;100.00
57290;BME280;43523;53.022;-1.178;2024-02-26T01:37:29;99793.19;;;-0.26;100.00
57290;BME280;43523;53.022;-1.178;2024-02-26T01:38:31;99794.38;;;0.00;100.00
57290;BME280;43523;53.022;-1.178;2024-02-26T01:39:34;99794.49;;;0.04;100.00
57290;BME280;43523;53.022;-1.178;2024-02-26T01:40:36;99796.96;;;-0.27;100.00
57290;BME280;43523;53.022;-1.178;2024-02-26T01:41:39;99800.82;;;0.18;100.00
57290;BME280;43523;53.022;-1.178;2024-02-26T01:42:45;99802.72;;;0.04;100.00
57290;BME280;43523;53.022;-1.178;2024-02-26T01:43:47;99800.22;;;-0.01;100.00
57290;BME280;43523;53.022;-1.178;2024-02-26T01:44:50;99805.23;;;-0.30;100.00
57290;BME280;43523;53.022;-1.178;2024-02-26T01:45:52;99807.43;;;-0.10;100.00
57290;BME280;43523;53.022;-1.178;2024-02-26T01:46:54;99806.63;;;-0.13;100.00
57290;BME280;43523;53.022;-1.178;2024-02-26T01:47:57;99808.05;;;-0.01;100.00
57290;BME280;43523;53.022;-1.178;2024-02-26T01:49:00;99805.39;;;-0.25;100.00
57290;BME280;43523;53.022;-1.178;2024-02-26T01:50:04;99809.70;;;-0.06;100.00
57290;BME280;43523;53.022;-1.178;2024-02-26T01:51:07;99809.49;;;-0.05;100.00
57290;BME280;43523;53.022;-1.178;2024-02-26T01:52:12;99813.45;;;0.26;100.00
57290;BME280;43523;53.022;-1.178;2024-02-26T01:53:15;99813.33;;;0.05;100.00
57290;BME280;43523;53.022;-1.178;2024-02-26T01:54:18;99816.81;;;-0.18;100.00
57290;BME280;43523;53.022;-1.178;2024-02-26T01:55:23;99816.64;;;-0.51;100.00
57290;BME280;43523;53.022;-1.178;2024-02-26T01:56:26;99820.52;;;-0.23;100.00
57290;BME280;43523;53.022;-1.178;2024-02-26T01:57:35;99822.96;;;-0.30;100.00
57290;BME280;43523;53.022;-1.178;2024-02-26T01:58:38;99822.62;;;-0.44;100.00
57290;BME280;43523;53.022;-1.178;2024-02-26T01:59:41;99825.80;;;-0.08;100.00
57290;BME280;43523;53.022;-1.178;2024-02-26T02:00:43;99830.77;;;-0.05;100.00
57290;BME280;43523;53.022;-1.178;2024-02-26T02:01:51;99829.11;;;-0.09;100.00
57290;BME280;43523;53.022;-1.178;2024-02-26T02:02:59;99829.22;;;-0.30;100.00
57290;BME280;43523;53.022;-1.178;2024-02-26T02:04:02;99831.43;;;-0.34;100.00
57290;BME280;43523;53.022;-1.178;2024-02-26T02:05:07;99830.01;;;-0.02;100.00
57290;BME280;43523;53.022;-1.178;2024-02-26T02:06:12;99830.18;;;0.01;100.00
57290;BME280;43523;53.022;-1.178;2024-02-26T02:07:15;99829.25;;;-0.15;100.00
57290;BME280;43523;53.022;-1.178;2024-02-26T02:08:19;99834.95;;;-0.17;100.00
57290;BME280;43523;53.022;-1.178;2024-02-26T02:09:22;99837.14;;;-0.39;100.00
57290;BME280;43523;53.022;-1.178;2024-02-26T02:10:26;99838.87;;;0.03;100.00
57290;BME280;43523;53.022;-1.178;2024-02-26T02:11:28;99838.55;;;-0.18;100.00
57290;BME280;43523;53.022;-1.178;2024-02-26T02:12:31;99840.42;;;0.09;100.00
57290;BME280;43523;53.022;-1.178;2024-02-26T02:13:34;99844.95;;;-0.01;100.00
57290;BME280;43523;53.022;-1.178;2024-02-26T02:14:36;99844.63;;;-0.19;100.00
57290;BME280;43523;53.022;-1.178;2024-02-26T02:15:39;99847.11;;;-0.28;100.00
57290;BME280;43523;53.022;-1.178;2024-02-26T02:16:41;99850.61;;;-0.03;100.00
57290;BME280;43523;53.022;-1.178;2024-02-26T02:17:44;99850.46;;;-0.11;100.00
57290;BME280;43523;53.022;-1.178;2024-02-26T02:18:47;99852.00;;;-0.04;100.00
57290;BME280;43523;53.022;-1.178;2024-02-26T02:19:49;99852.57;;;-0.24;100.00
57290;BME280;43523;53.022;-1.178;2024-02-26T02:20:52;99849.18;;;-0.20;100.00
57290;BME280;43523;53.022;-1.178;2024-02-26T02:21:55;99852.22;;;-0.10;100.00
57290;BME280;43523;53.022;-1.178;2024-02-26T02:22:58;99853.75;;;-0.08;100.00
57290;BME280;43523;53.022;-1.178;2024-02-26T02:24:00;99856.57;;;-0.01;100.00
57290;BME280;43523;53.022;-1.178;2024-02-26T02:25:04;99860.86;;;-0.38;100.00
57290;BME280;43523;53.022;-1.178;2024-02-26T02:26:07;99864.29;;;0.12;100.00
57290;BME280;43523;53.022;-1.178;2024-02-26T02:27:09;99865.24;;;0.09;100.00
57290;BME280;43523;53.022;-1.178;2024-02-26T02:28:12;99854.89;;;-0.22;100.00
57290;BME280;43523;53.022;-1.178;2024-02-26T02:29:15;99860.11;;;-0.21;100.00
57290;BME280;43523;53.022;-1.178;2024-02-26T02:30:18;99866.54;;;-0.16;100.00
57290;BME280;43523;53.022;-1.178;2024-02-26T02:31:20;99862.47;;;-0.05;100.00
57290;BME280;43523;53.022;-1.178;2024-02-26T02:32:24;99864.97;;;-0.03;100.00
57290;BME280;43523;53.022;-1.178;2024-02-26T02:33:27;99866.89;;;-0.08;100.00
57290;BME280;43523;53.022;-1.178;2024-02-26T02:34:30;99865.62;;;-0.42;100.00
57290;BME280;43523;53.022;-1.178;2024-02-26T02:35:33;99872.06;;;-0.36;100.00
57290;BME280;43523;53.022;-1.178;2024-02-26T02:36:48;99870.15;;;0.17;100.00
57290;BME280;43523;53.022;-1.178;2024-02-26T02:37:51;99867.91;;;-0.14;100.00
57290;BME280;43523;53.022;-1.178;2024-02-26T02:38:53;99866.52;;;-0.40;100.00
57290;BME280;43523;53.022;-1.178;2024-02-26T02:39:56;99870.80;;;-0.36;100.00
57290;BME280;43523;53.022;-1.178;2024-02-26T02:40:59;99873.26;;;-0.30;100.00
57290;BME280;43523;53.022;-1.178;2024-02-26T02:42:01;99874.22;;;-0.32;100.00
57290;BME280;43523;53.022;-1.178;2024-02-26T02:43:05;99878.74;;;-0.54;100.00
57290;BME280;43523;53.022;-1.178;2024-02-26T02:44:07;99877.98;;;-0.27;100.00
57290;BME280;43523;53.022;-1.178;2024-02-26T02:45:10;99877.39;;;-0.33;100.00
57290;BME280;43523;53.022;-1.178;2024-02-26T02:46:13;99878.65;;;-0.41;100.00
57290;BME280;43523;53.022;-1.178;2024-02-26T02:47:15;99879.32;;;-0.41;100.00
57290;BME280;43523;53.022;-1.178;2024-02-26T02:48:20;99886.02;;;-0.08;100.00
57290;BME280;43523;53.022;-1.178;2024-02-26T02:49:23;99890.94;;;-0.05;100.00
57290;BME280;43523;53.022;-1.178;2024-02-26T02:50:25;99890.38;;;-0.04;100.00
57290;BME280;43523;53.022;-1.178;2024-02-26T02:51:28;99891.72;;;-0.25;100.00
57290;BME280;43523;53.022;-1.178;2024-02-26T02:52:34;99896.16;;;-0.44;100.00
57290;BME280;43523;53.022;-1.178;2024-02-26T02:53:37;99896.42;;;-0.05;100.00
57290;BME280;43523;53.022;-1.178;2024-02-26T02:54:39;99900.14;;;-0.42;100.00
57290;BME280;43523;53.022;-1.178;2024-02-26T02:55:42;99900.75;;;-0.49;100.00
57290;BME280;43523;53.022;-1.178;2024-02-26T02:56:44;99905.16;;;-0.32;100.00
57290;BME280;43523;53.022;-1.178;2024-02-26T02:57:52;99904.74;;;-0.35;100.00
57290;BME280;43523;53.022;-1.178;2024-02-26T02:58:54;99906.09;;;-0.39;100.00
57290;BME280;43523;53.022;-1.178;2024-02-26T02:59:57;99908.44;;;-0.18;100.00
57290;BME280;43523;53.022;-1.178;2024-02-26T03:00:59;99916.45;;;-0.44;100.00
57290;BME280;43523;53.022;-1.178;2024-02-26T03:02:03;99915.42;;;-0.26;100.00
57290;BME280;43523;53.022;-1.178;2024-02-26T03:03:07;99919.78;;;-0.56;100.00
57290;BME280;43523;53.022;-1.178;2024-02-26T03:04:11;99921.52;;;-0.11;100.00
57290;BME280;43523;53.022;-1.178;2024-02-26T03:05:13;99926.43;;;-0.15;100.00
57290;BME280;43523;53.022;-1.178;2024-02-26T03:06:16;99923.78;;;-0.73;100.00
57290;BME280;43523;53.022;-1.178;2024-02-26T03:07:18;99923.97;;;-0.37;100.00
57290;BME280;43523;53.022;-1.178;2024-02-26T03:08:21;99932.34;;;-0.22;100.00
57290;BME280;43523;53.022;-1.178;2024-02-26T03:09:23;99931.78;;;-0.44;100.00
57290;BME280;43523;53.022;-1.178;2024-02-26T03:10:26;99933.57;;;-0.33;100.00
57290;BME280;43523;53.022;-1.178;2024-02-26T03:11:28;99935.66;;;-0.74;100.00
57290;BME280;43523;53.022;-1.178;2024-02-26T03:12:31;99933.54;;;-0.38;100.00
57290;BME280;43523;53.022;-1.178;2024-02-26T03:13:33;99936.05;;;-0.29;100.00
57290;BME280;43523;53.022;-1.178;2024-02-26T03:14:36;99937.41;;;-0.63;100.00
57290;BME280;43523;53.022;-1.178;2024-02-26T03:15:39;99941.10;;;-0.71;100.00
57290;BME280;43523;53.022;-1.178;2024-02-26T03:16:41;99940.22;;;-0.55;100.00
57290;BME280;43523;53.022;-1.178;2024-02-26T03:17:43;99938.76;;;-0.54;100.00
57290;BME280;43523;53.022;-1.178;2024-02-26T03:18:46;99945.25;;;-0.53;100.00
57290;BME280;43523;53.022;-1.178;2024-02-26T03:19:48;99942.71;;;-0.53;100.00
57290;BME280;43523;53.022;-1.178;2024-02-26T03:20:51;99943.24;;;-0.40;100.00
57290;BME280;43523;53.022;-1.178;2024-02-26T03:21:53;99944.43;;;-0.39;100.00
57290;BME280;43523;53.022;-1.178;2024-02-26T03:22:56;99943.45;;;-0.29;100.00
57290;BME280;43523;53.022;-1.178;2024-02-26T03:23:59;99948.32;;;-0.47;100.00
57290;BME280;43523;53.022;-1.178;2024-02-26T03:25:05;99949.91;;;-0.60;100.00
57290;BME280;43523;53.022;-1.178;2024-02-26T03:26:08;99949.73;;;-0.62;100.00
57290;BME280;43523;53.022;-1.178;2024-02-26T03:27:10;99951.74;;;-0.50;100.00
57290;BME280;43523;53.022;-1.178;2024-02-26T03:28:16;99949.76;;;-0.58;100.00
57290;BME280;43523;53.022;-1.178;2024-02-26T03:29:18;99952.24;;;-0.62;100.00
57290;BME280;43523;53.022;-1.178;2024-02-26T03:30:21;99957.28;;;-0.63;100.00
57290;BME280;43523;53.022;-1.178;2024-02-26T03:31:23;99957.81;;;-0.48;100.00
57290;BME280;43523;53.022;-1.178;2024-02-26T03:32:26;99962.18;;;-0.41;100.00
57290;BME280;43523;53.022;-1.178;2024-02-26T03:33:29;99958.55;;;-0.22;100.00
57290;BME280;43523;53.022;-1.178;2024-02-26T03:34:32;99963.61;;;-0.49;100.00
57290;BME280;43523;53.022;-1.178;2024-02-26T03:35:34;99968.47;;;-0.58;100.00
57290;BME280;43523;53.022;-1.178;2024-02-26T03:36:37;99966.16;;;-0.18;100.00
57290;BME280;43523;53.022;-1.178;2024-02-26T03:37:39;99969.42;;;-0.74;100.00
57290;BME280;43523;53.022;-1.178;2024-02-26T03:38:43;99972.42;;;-0.65;100.00
57290;BME280;43523;53.022;-1.178;2024-02-26T03:39:46;99972.35;;;-0.30;100.00
57290;BME280;43523;53.022;-1.178;2024-02-26T03:40:48;99978.08;;;-0.72;100.00
57290;BME280;43523;53.022;-1.178;2024-02-26T03:41:51;99979.41;;;-0.24;100.00
57290;BME280;43523;53.022;-1.178;2024-02-26T03:42:56;99977.70;;;-0.25;100.00
57290;BME280;43523;53.022;-1.178;2024-02-26T03:43:59;99983.54;;;-0.33;100.00
57290;BME280;43523;53.022;-1.178;2024-02-26T03:45:01;99984.36;;;-0.37;100.00
57290;BME280;43523;53.022;-1.178;2024-02-26T03:46:07;99990.26;;;-0.49;100.00
57290;BME280;43523;53.022;-1.178;2024-02-26T03:47:10;99989.52;;;-0.11;100.00
57290;BME280;43523;53.022;-1.178;2024-02-26T03:48:13;99993.73;;;-0.27;100.00
57290;BME280;43523;53.022;-1.178;2024-02-26T03:49:15;99997.57;;;-0.24;100.00
57290;BME280;43523;53.022;-1.178;2024-02-26T03:50:17;99995.35;;;-0.18;100.00
57290;BME280;43523;53.022;-1.178;2024-02-26T03:51:25;99998.57;;;-0.09;100.00
57290;BME280;43523;53.022;-1.178;2024-02-26T03:52:28;100003.83;;;-0.20;100.00
57290;BME280;43523;53.022;-1.178;2024-02-26T03:53:30;100005.27;;;0.08;100.00
57290;BME280;43523;53.022;-1.178;2024-02-26T03:54:33;100009.98;;;-0.18;100.00
57290;BME280;43523;53.022;-1.178;2024-02-26T03:55:35;100019.74;;;0.04;100.00
57290;BME280;43523;53.022;-1.178;2024-02-26T03:56:38;100013.66;;;0.30;100.00
57290;BME280;43523;53.022;-1.178;2024-02-26T03:57:40;100015.01;;;-0.03;100.00
57290;BME280;43523;53.022;-1.178;2024-02-26T03:58:43;100017.48;;;-0.08;100.00
57290;BME280;43523;53.022;-1.178;2024-02-26T03:59:45;100020.77;;;0.04;100.00
57290;BME280;43523;53.022;-1.178;2024-02-26T04:00:48;100012.66;;;-0.23;100.00
57290;BME280;43523;53.022;-1.178;2024-02-26T04:01:51;100021.18;;;0.04;100.00
57290;BME280;43523;53.022;-1.178;2024-02-26T04:02:54;100018.40;;;0.34;100.00
57290;BME280;43523;53.022;-1.178;2024-02-26T04:04:02;100021.59;;;0.01;100.00
57290;BME280;43523;53.022;-1.178;2024-02-26T04:05:08;100017.73;;;0.32;100.00
57290;BME280;43523;53.022;-1.178;2024-02-26T04:06:11;100022.36;;;-0.04;100.00
57290;BME280;43523;53.022;-1.178;2024-02-26T04:07:14;100024.70;;;-0.00;100.00
57290;BME280;43523;53.022;-1.178;2024-02-26T04:08:18;100025.74;;;0.01;100.00
57290;BME280;43523;53.022;-1.178;2024-02-26T04:09:21;100027.71;;;0.15;100.00
57290;BME280;43523;53.022;-1.178;2024-02-26T04:10:24;100030.58;;;-0.38;100.00
57290;BME280;43523;53.022;-1.178;2024-02-26T04:11:26;100032.96;;;-0.48;100.00
57290;BME280;43523;53.022;-1.178;2024-02-26T04:12:29;100038.92;;;0.24;100.00
57290;BME280;43523;53.022;-1.178;2024-02-26T04:13:32;100042.42;;;-0.10;100.00
57290;BME280;43523;53.022;-1.178;2024-02-26T04:14:41;100045.19;;;-0.26;100.00
57290;BME280;43523;53.022;-1.178;2024-02-26T04:15:43;100049.98;;;-0.02;100.00
57290;BME280;43523;53.022;-1.178;2024-02-26T04:16:45;100045.17;;;-0.21;100.00
57290;BME280;43523;53.022;-1.178;2024-02-26T04:17:48;100046.77;;;-0.13;100.00
57290;BME280;43523;53.022;-1.178;2024-02-26T04:18:50;100053.76;;;0.21;100.00
57290;BME280;43523;53.022;-1.178;2024-02-26T04:19:53;100055.90;;;-0.33;100.00
57290;BME280;43523;53.022;-1.178;2024-02-26T04:20:56;100060.22;;;0.03;100.00
57290;BME280;43523;53.022;-1.178;2024-02-26T04:21:59;100053.44;;;0.14;100.00
57290;BME280;43523;53.022;-1.178;2024-02-26T04:23:03;100063.70;;;-0.13;100.00
57290;BME280;43523;53.022;-1.178;2024-02-26T04:24:06;100062.17;;;-0.09;100.00
57290;BME280;43523;53.022;-1.178;2024-02-26T04:25:08;100070.63;;;0.06;100.00
57290;BME280;43523;53.022;-1.178;2024-02-26T04:26:11;100071.95;;;-0.02;100.00
57290;BME280;43523;53.022;-1.178;2024-02-26T04:27:13;100077.08;;;0.01;100.00
57290;BME280;43523;53.022;-1.178;2024-02-26T04:28:16;100080.40;;;-0.40;100.00
57290;BME280;43523;53.022;-1.178;2024-02-26T04:29:18;100084.02;;;-0.34;100.00
57290;BME280;43523;53.022;-1.178;2024-02-26T04:30:20;100085.69;;;-0.23;100.00
57290;BME280;43523;53.022;-1.178;2024-02-26T04:31:23;100088.15;;;-0.26;100.00
57290;BME280;43523;53.022;-1.178;2024-02-26T04:32:26;100090.68;;;-0.40;100.00
57290;BME280;43523;53.022;-1.178;2024-02-26T04:33:28;100095.14;;;-0.07;100.00
57290;BME280;43523;53.022;-1.178;2024-02-26T04:34:31;100093.46;;;-0.29;100.00
57290;BME280;43523;53.022;-1.178;2024-02-26T04:35:33;100096.47;;;-0.29;100.00
57290;BME280;43523;53.022;-1.178;2024-02-26T04:36:36;100096.47;;;-0.12;100.00
57290;BME280;43523;53.022;-1.178;2024-02-26T04:37:38;100101.23;;;-0.29;100.00
57290;BME280;43523;53.022;-1.178;2024-02-26T04:38:41;100102.15;;;-0.10;100.00
57290;BME280;43523;53.022;-1.178;2024-02-26T04:39:43;100101.27;;;-0.41;100.00
57290;BME280;43523;53.022;-1.178;2024-02-26T04:40:46;100107.35;;;-0.38;100.00
57290;BME280;43523;53.022;-1.178;2024-02-26T04:41:48;100110.57;;;-0.50;100.00
57290;BME280;43523;53.022;-1.178;2024-02-26T04:42:51;100113.61;;;-0.17;100.00
57290;BME280;43523;53.022;-1.178;2024-02-26T04:43:53;100116.79;;;-0.04;100.00
57290;BME280;43523;53.022;-1.178;2024-02-26T04:44:58;100120.81;;;-0.12;100.00
57290;BME280;43523;53.022;-1.178;2024-02-26T04:46:02;100117.13;;;-0.12;100.00
57290;BME280;43523;53.022;-1.178;2024-02-26T04:47:05;100122.18;;;-0.44;100.00
57290;BME280;43523;53.022;-1.178;2024-02-26T04:48:07;100122.75;;;-0.47;100.00
57290;BME280;43523;53.022;-1.178;2024-02-26T04:49:09;100123.61;;;-0.10;100.00
57290;BME280;43523;53.022;-1.178;2024-02-26T04:50:12;100124.62;;;0.06;100.00
57290;BME280;43523;53.022;-1.178;2024-02-26T04:51:14;100116.80;;;-0.60;100.00
57290;BME280;43523;53.022;-1.178;2024-02-26T04:52:18;100117.70;;;-0.31;100.00
57290;BME280;43523;53.022;-1.178;2024-02-26T04:53:20;100128.89;;;-0.35;100.00
57290;BME280;43523;53.022;-1.178;2024-02-26T04:54:23;100127.38;;;0.04;100.00
57290;BME280;43523;53.022;-1.178;2024-02-26T04:55:25;100126.16;;;-0.47;100.00
57290;BME280;43523;53.022;-1.178;2024-02-26T04:56:28;100130.76;;;-0.48;100.00
57290;BME280;43523;53.022;-1.178;2024-02-26T04:57:30;100130.94;;;-0.38;100.00
57290;BME280;43523;53.022;-1.178;2024-02-26T04:58:33;100134.05;;;-0.46;100.00
57290;BME280;43523;53.022;-1.178;2024-02-26T04:59:35;100137.72;;;-0.57;100.00
57290;BME280;43523;53.022;-1.178;2024-02-26T05:00:38;100139.42;;;-0.09;100.00
57290;BME280;43523;53.022;-1.178;2024-02-26T05:01:41;100137.54;;;-0.34;100.00
57290;BME280;43523;53.022;-1.178;2024-02-26T05:02:43;100141.81;;;-0.19;100.00
57290;BME280;43523;53.022;-1.178;2024-02-26T05:03:46;100149.25;;;-0.16;100.00
57290;BME280;43523;53.022;-1.178;2024-02-26T05:04:48;100148.68;;;0.15;100.00
57290;BME280;43523;53.022;-1.178;2024-02-26T05:05:51;100149.00;;;-0.18;100.00
57290;BME280;43523;53.022;-1.178;2024-02-26T05:06:53;100149.87;;;-0.40;100.00
57290;BME280;43523;53.022;-1.178;2024-02-26T05:07:56;100150.10;;;0.19;100.00
57290;BME280;43523;53.022;-1.178;2024-02-26T05:08:58;100152.80;;;0.03;100.00
57290;BME280;43523;53.022;-1.178;2024-02-26T05:10:01;100154.41;;;-0.05;100.00
57290;BME280;43523;53.022;-1.178;2024-02-26T05:11:04;100160.25;;;-0.15;100.00
57290;BME280;43523;53.022;-1.178;2024-02-26T05:12:07;100158.66;;;0.16;100.00
57290;BME280;43523;53.022;-1.178;2024-02-26T05:13:09;100160.74;;;0.10;100.00
57290;BME280;43523;53.022;-1.178;2024-02-26T05:14:12;100161.12;;;-0.26;100.00
57290;BME280;43523;53.022;-1.178;2024-02-26T05:15:15;100164.11;;;-0.20;100.00
57290;BME280;43523;53.022;-1.178;2024-02-26T05:16:21;100167.45;;;-0.00;100.00
57290;BME280;43523;53.022;-1.178;2024-02-26T05:17:24;100172.67;;;-0.30;100.00
57290;BME280;43523;53.022;-1.178;2024-02-26T05:18:28;100174.45;;;-0.50;100.00
57290;BME280;43523;53.022;-1.178;2024-02-26T05:19:35;100174.61;;;-0.27;100.00
57290;BME280;43523;53.022;-1.178;2024-02-26T05:20:38;100181.61;;;-0.28;100.00
57290;BME280;43523;53.022;-1.178;2024-02-26T05:21:40;100189.14;;;-0.11;100.00
57290;BME280;43523;53.022;-1.178;2024-02-26T05:22:43;100187.78;;;0.11;100.00
57290;BME280;43523;53.022;-1.178;2024-02-26T05:23:46;100190.39;;;-0.09;100.00
57290;BME280;43523;53.022;-1.178;2024-02-26T05:24:49;100189.68;;;-0.48;100.00
57290;BME280;43523;53.022;-1.178;2024-02-26T05:25:51;100197.21;;;-0.10;100.00